createdAt,value
2019-01-28T00:01:47.640Z,97049.56
2019-01-28T00:04:15.396Z,97046.71
2019-01-28T00:06:43.157Z,97049.68
2019-01-28T00:09:10.967Z,97051.04
2019-01-28T00:11:38.743Z,97041.32
2019-01-28T00:14:06.597Z,97049.59
2019-01-28T00:16:34.355Z,97045.13
2019-01-28T00:19:02.135Z,97048.23
2019-01-28T00:21:29.888Z,97055.18
2019-01-28T00:23:57.656Z,97048.45
2019-01-28T00:26:25.408Z,97047.50
2019-01-28T00:28:53.757Z,97057.33
2019-01-28T00:31:21.788Z,97054.55
2019-01-28T00:33:49.557Z,97049.03
2019-01-28T00:36:17.341Z,97058.75
2019-01-28T00:38:45.109Z,97048.81
2019-01-28T00:41:12.872Z,97049.68
2019-01-28T00:43:40.703Z,97053.41
2019-01-28T00:46:08.488Z,97059.22
2019-01-28T00:48:36.246Z,97055.70
2019-01-28T00:51:04.168Z,97054.96
2019-01-28T00:53:31.930Z,97058.02
2019-01-28T00:55:59.743Z,97061.83
2019-01-28T00:58:27.574Z,97061.03
2019-01-28T01:00:55.405Z,97060.98
2019-01-28T01:03:23.160Z,97062.40
2019-01-28T01:05:51.033Z,97063.65
2019-01-28T01:08:19.277Z,97062.74
2019-01-28T01:10:47.033Z,97063.50
2019-01-28T01:13:14.800Z,97065.98
2019-01-28T01:15:42.632Z,97063.27
2019-01-28T01:18:10.425Z,97070.12
2019-01-28T01:20:38.293Z,97064.52
2019-01-28T01:23:06.369Z,97067.62
2019-01-28T01:25:34.156Z,97061.66
2019-01-28T01:28:01.981Z,97063.12
2019-01-28T01:30:29.742Z,97061.39
2019-01-28T01:32:57.829Z,97065.48
2019-01-28T01:35:25.733Z,97063.48
2019-01-28T01:37:53.790Z,97058.36
2019-01-28T01:40:22.080Z,97061.04
2019-01-28T01:42:49.840Z,97065.70
2019-01-28T01:45:17.709Z,97060.01
2019-01-28T01:47:45.648Z,97060.64
2019-01-28T01:50:13.416Z,97058.59
2019-01-28T01:52:41.192Z,97059.12
2019-01-28T01:55:09.784Z,97063.66
2019-01-28T01:57:37.541Z,97059.01
2019-01-28T02:00:06.432Z,97059.28
2019-01-28T02:02:34.200Z,97058.87
2019-01-28T02:05:02.280Z,97063.27
2019-01-28T02:07:30.103Z,97063.65
2019-01-28T02:09:57.861Z,97052.64
2019-01-28T02:12:25.776Z,97058.55
2019-01-28T02:14:53.525Z,97057.23
2019-01-28T02:17:21.282Z,97051.33
2019-01-28T02:19:49.065Z,97055.36
2019-01-28T02:22:16.820Z,97052.02
2019-01-28T02:24:44.862Z,97048.26
2019-01-28T02:27:12.633Z,97043.30
2019-01-28T02:29:40.710Z,97047.96
2019-01-28T02:32:08.453Z,97045.64
2019-01-28T02:34:36.225Z,97044.97
2019-01-28T02:37:04.061Z,97046.55
2019-01-28T02:39:31.823Z,97046.27
2019-01-28T02:41:59.594Z,97049.00
2019-01-28T02:44:27.357Z,97042.92
2019-01-28T02:46:55.894Z,97044.97
2019-01-28T02:49:23.708Z,97039.62
2019-01-28T02:51:51.472Z,97043.09
2019-01-28T02:54:19.254Z,97035.87
2019-01-28T02:56:47.321Z,97035.81
2019-01-28T02:59:15.101Z,97028.66
2019-01-28T03:01:42.857Z,97032.95
2019-01-28T03:04:10.616Z,97031.38
2019-01-28T03:06:38.404Z,97033.53
2019-01-28T03:09:07.192Z,97028.66
2019-01-28T03:11:34.957Z,97029.80
2019-01-28T03:14:02.733Z,97026.61
2019-01-28T03:16:30.493Z,97031.10
2019-01-28T03:18:58.262Z,97019.34
2019-01-28T03:21:26.053Z,97021.92
2019-01-28T03:23:54.142Z,97018.41
2019-01-28T03:26:21.901Z,97025.28
2019-01-28T03:28:49.744Z,97017.27
2019-01-28T03:31:17.497Z,97015.86
2019-01-28T03:33:45.274Z,97009.43
2019-01-28T03:36:13.120Z,97015.97
2019-01-28T03:38:40.955Z,97015.63
2019-01-28T03:41:08.704Z,97011.25
2019-01-28T03:43:36.463Z,97012.20
2019-01-28T03:46:04.316Z,97013.59
2019-01-28T03:48:32.464Z,97015.63
2019-01-28T03:51:00.252Z,97018.79
2019-01-28T03:53:28.095Z,97021.13
2019-01-28T03:55:55.890Z,97021.59
2019-01-28T03:58:23.663Z,97013.97
2019-01-28T04:00:51.434Z,97011.25
2019-01-28T04:03:19.232Z,97016.75
2019-01-28T04:05:47.078Z,97019.48
2019-01-28T04:08:14.847Z,97018.12
2019-01-28T04:10:42.648Z,97019.42
2019-01-28T04:13:10.404Z,97020.73
2019-01-28T04:15:38.197Z,97016.70
2019-01-28T04:18:05.964Z,97016.37
2019-01-28T04:20:33.762Z,97018.74
2019-01-28T04:23:01.557Z,97019.09
2019-01-28T04:25:29.315Z,97017.22
2019-01-28T04:27:57.095Z,97015.63
2019-01-28T04:30:25.391Z,97016.70
2019-01-28T04:32:53.161Z,97013.59
2019-01-28T04:35:20.993Z,97013.35
2019-01-28T04:37:48.781Z,97008.86
2019-01-28T04:40:16.618Z,97003.35
2019-01-28T04:42:44.765Z,97004.39
2019-01-28T04:45:13.681Z,97012.50
2019-01-28T04:47:41.490Z,97009.67
2019-01-28T04:50:10.107Z,97003.66
2019-01-28T04:52:37.881Z,97003.98
2019-01-28T04:55:05.727Z,97009.10
2019-01-28T04:57:33.581Z,97008.02
2019-01-28T05:00:01.453Z,97008.78
2019-01-28T05:02:29.194Z,97004.85
2019-01-28T05:04:56.984Z,97008.42
2019-01-28T05:07:24.760Z,97003.66
2019-01-28T05:09:52.513Z,97003.44
2019-01-28T05:12:20.576Z,97007.85
2019-01-28T05:14:48.325Z,96997.23
2019-01-28T05:17:16.094Z,96995.52
2019-01-28T05:19:44.167Z,96999.39
2019-01-28T05:22:11.925Z,97005.27
2019-01-28T05:24:40.029Z,96997.80
2019-01-28T05:27:07.822Z,96996.11
2019-01-28T05:29:35.632Z,96993.94
2019-01-28T05:32:03.459Z,97000.31
2019-01-28T05:34:31.233Z,96999.22
2019-01-28T05:36:59.006Z,96997.17
2019-01-28T05:39:26.770Z,96994.11
2019-01-28T05:41:54.529Z,96999.95
2019-01-28T05:44:22.649Z,97001.20
2019-01-28T05:46:50.471Z,96998.67
2019-01-28T05:49:18.538Z,96992.25
2019-01-28T05:51:46.288Z,96998.10
2019-01-28T05:54:15.642Z,96999.91
2019-01-28T05:56:43.405Z,96994.67
2019-01-28T05:59:11.164Z,96991.89
2019-01-28T06:01:39.708Z,96997.23
2019-01-28T06:04:07.472Z,96994.86
2019-01-28T06:06:35.856Z,96999.46
2019-01-28T06:09:05.302Z,97001.23
2019-01-28T06:11:33.065Z,97000.66
2019-01-28T06:14:00.839Z,97008.04
2019-01-28T06:16:28.596Z,97009.73
2019-01-28T06:18:56.365Z,97003.77
2019-01-28T06:21:24.134Z,97007.87
2019-01-28T06:23:51.893Z,97017.64
2019-01-28T06:26:19.670Z,97011.50
2019-01-28T06:28:47.438Z,97008.98
2019-01-28T06:31:15.188Z,97009.62
2019-01-28T06:33:43.243Z,97008.31
2019-01-28T06:36:11.013Z,97004.91
2019-01-28T06:38:38.958Z,97010.70
2019-01-28T06:41:06.723Z,96999.63
2019-01-28T06:43:34.483Z,97011.77
2019-01-28T06:46:02.682Z,97008.75
2019-01-28T06:48:30.437Z,97016.10
2019-01-28T06:50:58.203Z,97013.27
2019-01-28T06:53:26.024Z,97012.97
2019-01-28T06:55:53.782Z,97017.81
2019-01-28T06:58:21.545Z,97015.58
2019-01-28T07:00:49.296Z,97008.48
2019-01-28T07:03:17.062Z,97011.28
2019-01-28T07:05:44.823Z,97015.03
2019-01-28T07:08:12.589Z,97018.59
2019-01-28T07:10:40.404Z,97017.46
2019-01-28T07:13:08.158Z,97021.63
2019-01-28T07:15:36.007Z,97018.93
2019-01-28T07:18:04.120Z,97021.73
2019-01-28T07:20:32.140Z,97022.12
2019-01-28T07:23:00.361Z,97022.25
2019-01-28T07:25:28.209Z,97023.89
2019-01-28T07:27:57.239Z,97024.44
2019-01-28T07:30:26.097Z,97033.44
2019-01-28T07:32:53.868Z,97044.63
2019-01-28T07:35:21.717Z,97043.89
2019-01-28T07:37:49.552Z,97049.67
2019-01-28T07:40:17.915Z,97051.49
2019-01-28T07:42:45.676Z,97053.03
2019-01-28T07:45:15.274Z,97051.50
2019-01-28T07:47:43.048Z,97056.38
2019-01-28T07:50:10.908Z,97058.55
2019-01-28T07:52:39.048Z,97056.97
2019-01-28T07:55:07.453Z,97059.28
2019-01-28T07:57:35.220Z,97065.52
2019-01-28T08:00:03.044Z,97065.14
2019-01-28T08:02:31.121Z,97070.38
2019-01-28T08:04:59.189Z,97070.24
2019-01-28T08:07:26.956Z,97075.36
2019-01-28T08:09:54.707Z,97067.00
2019-01-28T08:12:22.485Z,97070.31
2019-01-28T08:14:50.242Z,97073.42
2019-01-28T08:17:18.453Z,97075.66
2019-01-28T08:19:46.201Z,97070.70
2019-01-28T08:22:13.956Z,97069.56
2019-01-28T08:24:41.715Z,97072.58
2019-01-28T08:27:09.469Z,97078.14
2019-01-28T08:29:37.312Z,97084.68
2019-01-28T08:32:05.067Z,97084.69
2019-01-28T08:34:32.825Z,97084.79
2019-01-28T08:37:00.595Z,97095.95
2019-01-28T08:39:28.331Z,97098.10
2019-01-28T08:41:56.175Z,97097.27
2019-01-28T08:44:23.925Z,97093.42
2019-01-28T08:46:51.685Z,97096.39
2019-01-28T08:49:19.454Z,97091.16
2019-01-28T08:51:47.208Z,97096.55
2019-01-28T08:54:15.014Z,97093.95
2019-01-28T08:56:42.930Z,97096.28
2019-01-28T08:59:10.696Z,97093.48
2019-01-28T09:01:38.478Z,97093.48
2019-01-28T09:04:06.244Z,97103.43
2019-01-28T09:06:34.325Z,97107.41
2019-01-28T09:09:02.164Z,97109.97
2019-01-28T09:11:30.080Z,97113.27
2019-01-28T09:13:57.841Z,97122.88
2019-01-28T09:16:25.651Z,97118.44
2019-01-28T09:18:53.428Z,97120.54
2019-01-28T09:21:21.441Z,97122.03
2019-01-28T09:23:49.281Z,97127.76
2019-01-28T09:26:17.039Z,97131.11
2019-01-28T09:28:44.793Z,97136.42
2019-01-28T09:31:12.576Z,97137.33
2019-01-28T09:33:40.341Z,97142.61
2019-01-28T09:36:08.100Z,97143.45
2019-01-28T09:38:35.856Z,97147.68
2019-01-28T09:41:03.979Z,97145.97
2019-01-28T09:43:31.778Z,97145.67
2019-01-28T09:45:59.523Z,97150.48
2019-01-28T09:48:34.194Z,97155.34
2019-01-28T09:50:56.784Z,97159.65
2019-01-28T09:53:29.251Z,97160.11
2019-01-28T09:55:54.396Z,97172.87
2019-01-28T09:58:22.169Z,97177.35
2019-01-28T10:00:50.832Z,97184.30
2019-01-28T10:03:18.609Z,97186.84
2019-01-28T10:05:46.378Z,97185.01
2019-01-28T10:08:14.458Z,97197.77
2019-01-28T10:10:42.217Z,97207.62
2019-01-28T10:13:10.045Z,97210.20
2019-01-28T10:15:37.872Z,97210.25
2019-01-28T10:18:05.730Z,97221.23
2019-01-28T10:20:34.857Z,97225.98
2019-01-28T10:23:02.613Z,97225.85
2019-01-28T10:25:30.368Z,97236.69
2019-01-28T10:27:58.127Z,97229.47
2019-01-28T10:30:33.044Z,97244.86
2019-01-28T10:33:00.877Z,97242.66
2019-01-28T10:35:29.159Z,97246.16
2019-01-28T10:37:56.971Z,97238.73
2019-01-28T10:40:26.436Z,97239.36
2019-01-28T10:42:54.175Z,97247.02
2019-01-28T10:45:22.348Z,97254.00
2019-01-28T10:47:50.188Z,97256.14
2019-01-28T10:50:18.312Z,97254.50
2019-01-28T10:52:46.157Z,97262.28
2019-01-28T10:55:14.277Z,97267.48
2019-01-28T10:57:42.224Z,97262.12
2019-01-28T11:00:13.517Z,97267.66
2019-01-28T11:02:41.280Z,97275.89
2019-01-28T11:05:09.033Z,97274.60
2019-01-28T11:07:36.793Z,97278.10
2019-01-28T11:10:05.729Z,97283.81
2019-01-28T11:12:33.691Z,97283.08
2019-01-28T11:15:01.808Z,97285.21
2019-01-28T11:17:29.813Z,97282.33
2019-01-28T11:19:57.700Z,97285.16
2019-01-28T11:22:25.877Z,97293.14
2019-01-28T11:24:53.781Z,97289.94
2019-01-28T11:27:21.628Z,97296.23
2019-01-28T11:29:49.519Z,97300.31
2019-01-28T11:32:17.277Z,97292.94
2019-01-28T11:34:45.259Z,97301.42
2019-01-28T11:37:13.060Z,97311.66
2019-01-28T11:39:40.868Z,97312.27
2019-01-28T11:42:08.734Z,97306.27
2019-01-28T11:44:36.493Z,97299.44
2019-01-28T11:47:04.393Z,97325.08
2019-01-28T11:49:32.274Z,97331.48
2019-01-28T11:52:00.169Z,97327.50
2019-01-28T11:54:27.923Z,97330.03
2019-01-28T11:56:55.711Z,97334.55
2019-01-28T11:59:24.436Z,97344.16
2019-01-28T12:01:52.195Z,97346.02
2019-01-28T12:04:19.952Z,97351.05
2019-01-28T12:06:47.829Z,97362.28
2019-01-28T12:09:15.669Z,97355.09
2019-01-28T12:11:44.065Z,97356.02
2019-01-28T12:14:11.884Z,97365.78
2019-01-28T12:16:39.630Z,97368.03
2019-01-28T12:19:14.056Z,97368.38
2019-01-28T12:21:36.943Z,97375.98
2019-01-28T12:24:04.850Z,97381.23
2019-01-28T12:26:32.671Z,97380.11
2019-01-28T12:29:00.437Z,97395.47
2019-01-28T12:31:28.261Z,97395.94
2019-01-28T12:33:56.036Z,97402.30
2019-01-28T12:36:23.838Z,97407.05
2019-01-28T12:38:51.595Z,97413.05
2019-01-28T12:41:19.348Z,97412.95
2019-01-28T12:43:48.961Z,97428.39
2019-01-28T12:46:16.990Z,97433.21
2019-01-28T12:48:44.753Z,97428.23
2019-01-28T12:51:13.101Z,97432.71
2019-01-28T12:53:40.944Z,97441.36
2019-01-28T12:56:08.693Z,97449.31
2019-01-28T12:58:36.484Z,97448.73
2019-01-28T13:01:05.600Z,97460.23
2019-01-28T13:03:33.504Z,97458.27
2019-01-28T13:06:01.305Z,97462.71
2019-01-28T13:08:29.052Z,97464.41
2019-01-28T13:10:56.809Z,97467.77
2019-01-28T13:13:24.610Z,97473.70
2019-01-28T13:15:52.359Z,97467.41
2019-01-28T13:18:20.117Z,97482.28
2019-01-28T13:20:48.313Z,97481.70
2019-01-28T13:23:16.062Z,97476.65
2019-01-28T13:25:43.814Z,97479.00
2019-01-28T13:28:12.016Z,97491.81
2019-01-28T13:30:39.848Z,97488.92
2019-01-28T13:33:15.106Z,97494.33
2019-01-28T13:35:42.869Z,97499.84
2019-01-28T13:38:10.701Z,97505.34
2019-01-28T13:40:38.535Z,97512.91
2019-01-28T13:43:06.401Z,97520.16
2019-01-28T13:45:34.228Z,97516.73
2019-01-28T13:48:02.113Z,97519.66
2019-01-28T13:50:30.003Z,97523.25
2019-01-28T13:52:57.761Z,97524.80
2019-01-28T13:55:25.535Z,97519.28
2019-01-28T13:57:53.288Z,97533.14
2019-01-28T14:00:22.327Z,97533.27
2019-01-28T14:02:50.159Z,97541.95
2019-01-28T14:05:17.916Z,97546.23
2019-01-28T14:07:45.760Z,97554.80
2019-01-28T14:10:14.596Z,97551.59
2019-01-28T14:12:42.419Z,97559.81
2019-01-28T14:15:15.360Z,97558.73
2019-01-28T14:17:43.484Z,97559.36
2019-01-28T14:20:12.637Z,97566.41
2019-01-28T14:22:40.405Z,97569.91
2019-01-28T14:25:09.014Z,97571.23
2019-01-28T14:27:36.832Z,97575.23
2019-01-28T14:30:05.446Z,97573.70
2019-01-28T14:32:33.236Z,97581.15
2019-01-28T14:35:01.007Z,97588.92
2019-01-28T14:37:28.767Z,97595.27
2019-01-28T14:39:57.449Z,97606.13
2019-01-28T14:42:25.196Z,97610.84
2019-01-28T14:44:53.229Z,97618.87
2019-01-28T14:47:21.080Z,97632.16
2019-01-28T14:49:54.309Z,97629.34
2019-01-28T14:52:18.590Z,97645.27
2019-01-28T14:54:46.373Z,97649.67
2019-01-28T14:57:14.120Z,97646.30
2019-01-28T14:59:41.877Z,97655.07
2019-01-28T15:02:09.748Z,97654.72
2019-01-28T15:04:37.527Z,97674.73
2019-01-28T15:07:05.363Z,97674.73
2019-01-28T15:09:33.144Z,97683.37
2019-01-28T15:12:00.980Z,97684.61
2019-01-28T15:14:28.727Z,97685.09
2019-01-28T15:16:56.524Z,97689.39
2019-01-28T15:19:24.294Z,97692.58
2019-01-28T15:21:52.141Z,97691.02
2019-01-28T15:24:19.919Z,97699.42
2019-01-28T15:26:48.227Z,97698.17
2019-01-28T15:29:16.125Z,97705.58
2019-01-28T15:31:43.913Z,97699.33
2019-01-28T15:34:11.748Z,97709.89
2019-01-28T15:36:39.489Z,97713.78
2019-01-28T15:39:08.463Z,97720.31
2019-01-28T15:41:36.224Z,97730.70
2019-01-28T15:44:04.273Z,97735.33
2019-01-28T15:46:32.065Z,97742.94
2019-01-28T15:48:59.833Z,97739.40
2019-01-28T15:51:27.587Z,97738.19
2019-01-28T15:53:56.049Z,97749.50
2019-01-28T15:56:23.816Z,97755.13
2019-01-28T15:58:51.576Z,97766.53
2019-01-28T16:01:19.353Z,97760.37
2019-01-28T16:03:47.109Z,97767.30
2019-01-28T16:06:14.865Z,97768.97
2019-01-28T16:08:42.808Z,97770.19
2019-01-28T16:11:10.566Z,97781.97
2019-01-28T16:13:38.331Z,97785.45
2019-01-28T16:16:06.140Z,97791.80
2019-01-28T16:18:35.001Z,97777.97
2019-01-28T16:21:02.913Z,97797.72
2019-01-28T16:23:30.725Z,97801.06
2019-01-28T16:25:58.479Z,97802.64
2019-01-28T16:28:26.241Z,97804.44
2019-01-28T16:30:54.022Z,97812.04
2019-01-28T16:33:21.776Z,97807.44
2019-01-28T16:35:49.574Z,97823.06
2019-01-28T16:38:17.681Z,97823.09
2019-01-28T16:40:45.530Z,97823.38
2019-01-28T16:43:13.376Z,97831.78
2019-01-28T16:45:41.211Z,97838.80
2019-01-28T16:48:09.312Z,97847.97
2019-01-28T16:50:37.198Z,97849.67
2019-01-28T16:53:05.280Z,97855.08
2019-01-28T16:55:33.026Z,97859.36
2019-01-28T16:58:00.776Z,97855.27
2019-01-28T17:00:29.514Z,97853.21
2019-01-28T17:02:57.351Z,97853.86
2019-01-28T17:05:25.705Z,97861.69
2019-01-28T17:07:53.577Z,97850.55
2019-01-28T17:10:21.322Z,97869.23
2019-01-28T17:12:49.083Z,97865.70
2019-01-28T17:15:17.203Z,97869.20
2019-01-28T17:17:44.964Z,97876.88
2019-01-28T17:20:15.028Z,97888.94
2019-01-28T17:22:43.772Z,97886.22
2019-01-28T17:25:12.630Z,97896.95
2019-01-28T17:27:40.393Z,97904.66
2019-01-28T17:30:11.522Z,97901.98
2019-01-28T17:32:39.276Z,97903.44
2019-01-28T17:35:07.800Z,97909.80
2019-01-28T17:37:35.888Z,97919.27
2019-01-28T17:40:04.648Z,97922.66
2019-01-28T17:42:32.584Z,97932.50
2019-01-28T17:45:00.346Z,97922.46
2019-01-28T17:47:28.180Z,97933.19
2019-01-28T17:50:01.240Z,97930.42
2019-01-28T17:52:25.819Z,97935.05
2019-01-28T17:54:53.580Z,97947.38
2019-01-28T17:57:21.324Z,97952.05
2019-01-28T17:59:49.104Z,97955.44
2019-01-28T18:02:16.856Z,97959.02
2019-01-28T18:04:44.607Z,97966.56
2019-01-28T18:07:12.405Z,97973.09
2019-01-28T18:09:40.169Z,97965.00
2019-01-28T18:12:07.936Z,97972.00
2019-01-28T18:14:35.691Z,97981.34
2019-01-28T18:17:03.530Z,97984.28
2019-01-28T18:19:31.305Z,97998.84
2019-01-28T18:21:59.161Z,97994.09
2019-01-28T18:24:27.269Z,97991.22
2019-01-28T18:26:55.657Z,97996.89
2019-01-28T18:29:23.421Z,98000.94
2019-01-28T18:31:51.173Z,98013.80
2019-01-28T18:34:18.942Z,98011.08
2019-01-28T18:36:46.701Z,98020.52
2019-01-28T18:39:15.296Z,98019.24
2019-01-28T18:41:43.142Z,98024.39
2019-01-28T18:44:10.885Z,98036.20
2019-01-28T18:46:38.777Z,98043.12
2019-01-28T18:49:06.544Z,98042.73
2019-01-28T18:51:34.301Z,98038.52
2019-01-28T18:54:02.108Z,98042.53
2019-01-28T18:56:29.871Z,98045.06
2019-01-28T18:58:57.625Z,98044.74
2019-01-28T19:01:26.029Z,98053.05
2019-01-28T19:03:54.034Z,98055.71
2019-01-28T19:06:46.776Z,98063.15
2019-01-28T19:09:31.824Z,98060.09
2019-01-28T19:12:16.190Z,98074.34
2019-01-28T19:15:06.080Z,98081.89
2019-01-28T19:17:51.415Z,98083.73
2019-01-28T19:20:44.309Z,98092.30
2019-01-28T19:23:12.092Z,98083.45
2019-01-28T19:25:39.941Z,98094.43
2019-01-28T19:28:07.816Z,98099.88
2019-01-28T19:30:35.721Z,98104.05
2019-01-28T19:33:03.568Z,98103.37
2019-01-28T19:35:31.323Z,98105.14
2019-01-28T19:37:59.511Z,98107.49
2019-01-28T19:40:27.267Z,98106.98
2019-01-28T19:42:55.013Z,98112.27
2019-01-28T19:45:22.812Z,98118.59
2019-01-28T19:47:50.614Z,98142.25
2019-01-28T19:50:22.756Z,98143.33
2019-01-28T19:52:50.837Z,98147.88
2019-01-28T19:55:18.668Z,98150.60
2019-01-28T19:57:46.535Z,98143.38
2019-01-28T20:00:16.307Z,98151.10
2019-01-28T20:02:44.069Z,98157.83
2019-01-28T20:05:11.917Z,98156.30
2019-01-28T20:07:39.681Z,98149.33
2019-01-28T20:10:07.772Z,98154.63
2019-01-28T20:12:35.610Z,98158.01
2019-01-28T20:15:03.471Z,98169.16
2019-01-28T20:17:31.229Z,98170.64
2019-01-28T20:19:59.337Z,98175.16
2019-01-28T20:22:27.099Z,98180.00
2019-01-28T20:24:54.835Z,98186.69
2019-01-28T20:27:22.650Z,98184.28
2019-01-28T20:29:50.391Z,98184.98
2019-01-28T20:32:18.177Z,98192.17
2019-01-28T20:34:45.934Z,98191.02
2019-01-28T20:37:13.690Z,98197.30
2019-01-28T20:39:41.504Z,98203.06
2019-01-28T20:42:09.248Z,98204.70
2019-01-28T20:44:37.062Z,98208.94
2019-01-28T20:47:06.014Z,98214.31
2019-01-28T20:49:33.761Z,98214.69
2019-01-28T20:52:01.555Z,98219.78
2019-01-28T20:54:30.139Z,98222.23
2019-01-28T20:56:57.894Z,98224.69
2019-01-28T20:59:25.643Z,98230.53
2019-01-28T21:01:53.436Z,98229.31
2019-01-28T21:04:21.166Z,98237.39
2019-01-28T21:06:49.055Z,98231.63
2019-01-28T21:09:17.004Z,98191.04
2019-01-28T21:11:45.062Z,98247.05
2019-01-28T21:14:12.809Z,98241.98
2019-01-28T21:16:40.898Z,98249.91
2019-01-28T21:19:08.721Z,98246.39
2019-01-28T21:21:41.804Z,98251.01
2019-01-28T21:24:07.286Z,98251.19
2019-01-28T21:26:35.031Z,98259.29
2019-01-28T21:29:02.796Z,98260.50
2019-01-28T21:31:31.394Z,98264.59
2019-01-28T21:33:59.141Z,98257.06
2019-01-28T21:36:38.621Z,98256.28
2019-01-28T21:39:08.956Z,98254.66
2019-01-28T21:41:36.742Z,98253.33
2019-01-28T21:44:04.613Z,98258.94
2019-01-28T21:46:32.361Z,98262.24
2019-01-28T21:49:01.160Z,98267.02
2019-01-28T21:51:28.993Z,98263.09
2019-01-28T21:55:38.003Z,98272.89
2019-01-28T21:58:05.904Z,98276.71
2019-01-28T22:00:33.669Z,98277.41
2019-01-28T22:03:01.425Z,98275.45
2019-01-28T22:05:29.201Z,98275.04
2019-01-28T22:07:56.987Z,98281.95
2019-01-28T22:10:26.081Z,98285.81
2019-01-28T22:12:53.911Z,98289.98
2019-01-28T22:15:21.662Z,98285.50
2019-01-28T22:17:49.416Z,98293.05
2019-01-28T22:20:17.263Z,98278.29
2019-01-28T22:22:45.097Z,98283.89
2019-01-28T22:25:12.965Z,98283.67
2019-01-28T22:27:40.725Z,98286.98
2019-01-28T22:30:16.080Z,98284.96
2019-01-28T22:32:43.880Z,98279.81
2019-01-28T22:35:11.639Z,98279.78
2019-01-28T22:37:39.739Z,98274.99
2019-01-28T22:40:08.030Z,98276.17
2019-01-28T22:42:35.779Z,98279.94
2019-01-28T22:45:03.743Z,98281.35
2019-01-28T22:47:31.584Z,98277.51
2019-01-28T22:49:59.332Z,98279.63
2019-01-28T22:52:27.109Z,98286.99
2019-01-28T22:54:54.852Z,98287.69
2019-01-28T22:57:22.637Z,98282.15
2019-01-28T22:59:50.764Z,98296.34
2019-01-28T23:02:18.524Z,98301.67
2019-01-28T23:04:46.291Z,98306.63
2019-01-28T23:07:14.072Z,98314.53
2019-01-28T23:09:41.949Z,98313.15
2019-01-28T23:12:10.115Z,98311.70
2019-01-28T23:14:37.882Z,98317.92
2019-01-28T23:17:05.648Z,98314.31
2019-01-28T23:19:33.400Z,98316.84
2019-01-28T23:22:01.281Z,98311.17
2019-01-28T23:24:29.047Z,98322.34
2019-01-28T23:26:57.273Z,98328.00
2019-01-28T23:29:25.046Z,98326.25
2019-01-28T23:31:52.808Z,98329.17
2019-01-28T23:34:20.908Z,98328.72
2019-01-28T23:36:49.322Z,98327.91
2019-01-28T23:39:17.460Z,98298.66
2019-01-28T23:41:45.221Z,98340.16
2019-01-28T23:44:13.150Z,98342.50
2019-01-28T23:46:40.967Z,98343.17
2019-01-28T23:49:08.729Z,98346.82
2019-01-28T23:51:36.524Z,98347.46
2019-01-28T23:54:04.625Z,98350.23
2019-01-28T23:56:32.443Z,98349.98
2019-01-28T23:59:00.217Z,98347.02
